Time;durP1;ratioP1;P1;durP2;ratioP2;P2;SDS_P1;SDS_P2;PMS_P1;PMS_P2;Temp;Humidity;BMP_temperature;BMP_pressure;BME280_temperature;BME280_humidity;BME280_pressure;Samples;Min_cycle;Max_cycle;Signal;HPM_P1;HPM_P2
2022/11/06 00:00:17;;;;;;;82.32;62.50;;;;;;;;;;5111877;28;20023;-77
2022/11/06 00:02:43;;;;;;;68.00;54.55;;;;;;;;;;5121644;28;20035;-78
2022/11/06 00:07:52;;;;;;;93.78;67.70;;;;;;;;;;5121240;28;20066;-77
2022/11/06 00:10:18;;;;;;;117.43;83.15;;;;;;;;;;5121878;28;20050;-78
2022/11/06 00:12:43;;;;;;;118.40;84.82;;;;;;;;;;5112294;28;20092;-77
2022/11/06 00:15:09;;;;;;;113.32;83.43;;;;;;;;;;5119232;28;20528;-78
2022/11/06 00:17:35;;;;;;;212.95;118.65;;;;;;;;;;5118962;28;20070;-78
2022/11/06 00:20:00;;;;;;;166.93;101.93;;;;;;;;;;5109513;28;20023;-77
2022/11/06 00:22:26;;;;;;;126.30;85.93;;;;;;;;;;5120962;28;20019;-78
2022/11/06 00:24:51;;;;;;;107.65;80.43;;;;;;;;;;5121719;28;20042;-78
2022/11/06 00:27:17;;;;;;;99.70;71.28;;;;;;;;;;5104178;28;20027;-77
2022/11/06 00:29:42;;;;;;;94.00;71.88;;;;;;;;;;5119993;28;20066;-77
2022/11/06 00:32:07;;;;;;;88.80;66.20;;;;;;;;;;5116728;28;20435;-77
2022/11/06 00:34:33;;;;;;;89.75;68.20;;;;;;;;;;5113366;28;20035;-78
2022/11/06 00:36:58;;;;;;;85.63;65.30;;;;;;;;;;5122730;28;20027;-78
2022/11/06 00:39:23;;;;;;;80.32;63.45;;;;;;;;;;5122039;28;20382;-78
2022/11/06 00:41:49;;;;;;;83.03;66.15;;;;;;;;;;5121437;28;20341;-78
2022/11/06 00:44:14;;;;;;;81.40;62.75;;;;;;;;;;5117604;27;20099;-77
2022/11/06 00:46:39;;;;;;;98.10;78.28;;;;;;;;;;5115785;27;20023;-77
2022/11/06 00:49:05;;;;;;;127.05;97.85;;;;;;;;;;5121265;27;20015;-79
2022/11/06 00:51:31;;;;;;;138.98;102.35;;;;;;;;;;5125240;27;20038;-78
2022/11/06 00:53:58;;;;;;;141.02;108.82;;;;;;;;;;5124517;27;20023;-77
2022/11/06 00:56:24;;;;;;;155.82;116.15;;;;;;;;;;5125778;27;20019;-77
2022/11/06 00:58:49;;;;;;;159.93;114.90;;;;;;;;;;5113672;27;20083;-78
2022/11/06 01:01:16;;;;;;;143.38;107.45;;;;;;;;;;5117193;27;20042;-76
2022/11/06 01:03:42;;;;;;;129.63;101.15;;;;;;;;;;5124814;27;20058;-78
2022/11/06 01:06:09;;;;;;;118.78;93.40;;;;;;;;;;5126095;27;20483;-78
2022/11/06 01:08:34;;;;;;;126.38;97.38;;;;;;;;;;5124693;27;20027;-78
2022/11/06 01:11:07;;;;;;;137.68;108.25;;;;;;;;;;5126069;27;20319;-78
2022/11/06 01:13:33;;;;;;;122.97;95.40;;;;;;;;;;5107124;27;20597;-77
2022/11/06 01:15:59;;;;;;;114.38;89.15;;;;;;;;;;5125810;27;20122;-78
2022/11/06 01:18:24;;;;;;;98.97;78.05;;;;;;;;;;5123635;27;20047;-76
2022/11/06 01:20:49;;;;;;;100.25;79.35;;;;;;;;;;5112754;27;20100;-77
2022/11/06 01:23:15;;;;;;;95.15;75.53;;;;;;;;;;5121969;27;20030;-78
2022/11/06 01:25:40;;;;;;;87.40;69.47;;;;;;;;;;5125049;27;20032;-77
2022/11/06 01:28:05;;;;;;;93.85;76.32;;;;;;;;;;5124460;27;20019;-76
2022/11/06 01:30:34;;;;;;;98.30;80.18;;;;;;;;;;5125253;27;20031;-76
2022/11/06 01:32:59;;;;;;;99.75;72.88;;;;;;;;;;5124740;27;20019;-77
2022/11/06 01:35:25;;;;;;;91.95;74.40;;;;;;;;;;5123557;27;20438;-77
2022/11/06 01:37:50;;;;;;;86.25;68.35;;;;;;;;;;5124945;27;20092;-76
2022/11/06 01:40:15;;;;;;;88.15;69.72;;;;;;;;;;5123036;27;20428;-77
2022/11/06 01:42:41;;;;;;;91.43;73.90;;;;;;;;;;5122730;27;20034;-76
2022/11/06 01:45:18;;;;;;;104.70;87.10;;;;;;;;;;5122141;27;20071;-76
2022/11/06 01:47:43;;;;;;;106.97;85.68;;;;;;;;;;5122889;27;20031;-77
2022/11/06 01:50:09;;;;;;;100.65;81.10;;;;;;;;;;5125416;27;20015;-77
2022/11/06 01:52:35;;;;;;;82.75;65.65;;;;;;;;;;5123920;27;20016;-77
2022/11/06 01:55:09;;;;;;;76.57;62.80;;;;;;;;;;5123084;27;20045;-77
2022/11/06 01:57:35;;;;;;;77.60;62.75;;;;;;;;;;5123677;27;20095;-75
2022/11/06 02:00:00;;;;;;;78.95;60.45;;;;;;;;;;5122610;27;20470;-75
2022/11/06 02:02:26;;;;;;;77.60;62.80;;;;;;;;;;5123402;27;20102;-75
2022/11/06 02:04:51;;;;;;;92.55;68.35;;;;;;;;;;5123142;27;20410;-75
2022/11/06 02:07:17;;;;;;;73.88;59.20;;;;;;;;;;5124432;27;20031;-76
2022/11/06 02:09:43;;;;;;;73.82;59.10;;;;;;;;;;5124243;27;20071;-77
2022/11/06 02:12:26;;;;;;;72.25;56.95;;;;;;;;;;5122664;27;20019;-77
2022/11/06 02:14:59;;;;;;;71.53;55.83;;;;;;;;;;5122422;27;20122;-77
2022/11/06 02:17:24;;;;;;;74.63;59.33;;;;;;;;;;5123012;27;20078;-78
2022/11/06 02:19:58;;;;;;;77.60;63.05;;;;;;;;;;5114978;27;20069;-77
2022/11/06 02:22:30;;;;;;;81.85;63.45;;;;;;;;;;5121747;27;20394;-78
2022/11/06 02:25:07;;;;;;;78.22;62.85;;;;;;;;;;5121846;27;20024;-78
2022/11/06 02:27:40;;;;;;;87.80;66.05;;;;;;;;;;5123976;27;20446;-78
2022/11/06 02:30:05;;;;;;;79.90;64.50;;;;;;;;;;5124424;27;20034;-77
2022/11/06 02:32:38;;;;;;;93.22;72.25;;;;;;;;;;5123739;27;20019;-77
2022/11/06 02:35:15;;;;;;;85.43;66.57;;;;;;;;;;5104283;27;20035;-77
2022/11/06 02:37:41;;;;;;;78.95;62.53;;;;;;;;;;5122881;27;20015;-77
2022/11/06 02:40:08;;;;;;;78.80;60.53;;;;;;;;;;5121741;27;20047;-76
2022/11/06 02:42:35;;;;;;;80.07;61.78;;;;;;;;;;5120093;27;20083;-77
2022/11/06 02:45:01;;;;;;;81.50;65.45;;;;;;;;;;5122225;27;20019;-77
2022/11/06 02:47:30;;;;;;;87.72;66.18;;;;;;;;;;5110483;27;20048;-77
2022/11/06 02:50:00;;;;;;;91.78;71.72;;;;;;;;;;5119015;27;20123;-77
2022/11/06 02:52:54;;;;;;;93.50;73.22;;;;;;;;;;5123917;27;20015;-77
2022/11/06 02:55:29;;;;;;;82.28;65.93;;;;;;;;;;5059627;28;20047;-76
2022/11/06 02:57:57;;;;;;;83.57;65.72;;;;;;;;;;5060391;28;20075;-76
2022/11/06 03:00:24;;;;;;;74.70;63.83;;;;;;;;;;5057368;28;20036;-77
2022/11/06 03:02:54;;;;;;;82.47;64.38;;;;;;;;;;5059125;28;20180;-77
2022/11/06 03:05:22;;;;;;;75.22;60.35;;;;;;;;;;5059851;28;20040;-78
2022/11/06 03:07:57;;;;;;;81.10;64.28;;;;;;;;;;5058412;28;20028;-77
2022/11/06 03:10:25;;;;;;;64.22;55.47;;;;;;;;;;5057561;28;20033;-77
2022/11/06 03:12:53;;;;;;;65.10;52.47;;;;;;;;;;5049743;28;20040;-77
2022/11/06 03:15:21;;;;;;;67.22;51.08;;;;;;;;;;5054447;28;20133;-76
2022/11/06 03:17:50;;;;;;;67.13;50.45;;;;;;;;;;5057302;28;20044;-77
2022/11/06 03:20:19;;;;;;;82.82;58.85;;;;;;;;;;5060622;28;20031;-77
2022/11/06 03:22:51;;;;;;;73.85;56.40;;;;;;;;;;5057866;28;20072;-77
2022/11/06 03:25:22;;;;;;;71.70;53.22;;;;;;;;;;5058719;28;20040;-77
2022/11/06 03:28:06;;;;;;;64.25;50.25;;;;;;;;;;5058258;28;20033;-75
2022/11/06 03:30:35;;;;;;;68.32;55.13;;;;;;;;;;5058581;28;20452;-77
2022/11/06 03:33:05;;;;;;;68.05;54.33;;;;;;;;;;5101969;28;20020;-78
2022/11/06 03:35:34;;;;;;;69.25;54.65;;;;;;;;;;5101255;28;20031;-78
2022/11/06 03:38:22;;;;;;;64.25;54.42;;;;;;;;;;5101326;28;20036;-78
2022/11/06 03:40:50;;;;;;;61.90;51.65;;;;;;;;;;5100871;28;20028;-76
2022/11/06 03:43:18;;;;;;;63.20;49.58;;;;;;;;;;5101835;28;20103;-78
2022/11/06 03:45:44;;;;;;;65.32;53.50;;;;;;;;;;5100038;28;20086;-78
2022/11/06 03:48:20;;;;;;;75.95;56.33;;;;;;;;;;5099498;28;20031;-78
2022/11/06 03:50:49;;;;;;;80.88;57.95;;;;;;;;;;5101037;28;20069;-78
2022/11/06 03:53:41;;;;;;;110.80;81.82;;;;;;;;;;5102276;28;20645;-77
2022/11/06 03:56:13;;;;;;;94.30;72.70;;;;;;;;;;5049367;28;20040;-77
2022/11/06 03:58:42;;;;;;;80.53;63.40;;;;;;;;;;5049769;28;20112;-76
2022/11/06 04:01:09;;;;;;;85.40;65.57;;;;;;;;;;5051534;28;20025;-77
2022/11/06 04:03:38;;;;;;;127.35;86.22;;;;;;;;;;5050518;28;20024;-78
2022/11/06 04:06:10;;;;;;;120.35;93.93;;;;;;;;;;5043842;28;20127;-78
2022/11/06 04:14:07;;;;;;;108.65;81.82;;;;;;;;;;5050551;28;20929;-78
2022/11/06 04:16:40;;;;;;;101.22;74.68;;;;;;;;;;5051547;28;20028;-77
2022/11/06 04:19:12;;;;;;;91.32;74.90;;;;;;;;;;5053963;28;20548;-78
2022/11/06 04:21:43;;;;;;;102.65;79.53;;;;;;;;;;5052698;28;20032;-78
2022/11/06 04:27:18;;;;;;;96.13;70.45;;;;;;;;;;5050075;28;20128;-78
2022/11/06 04:30:01;;;;;;;81.88;60.13;;;;;;;;;;5049917;28;20044;-78
2022/11/06 04:32:27;;;;;;;80.70;65.03;;;;;;;;;;5070305;28;20024;-78
2022/11/06 04:34:52;;;;;;;75.75;61.17;;;;;;;;;;5104205;28;20035;-79
2022/11/06 04:37:24;;;;;;;75.88;57.08;;;;;;;;;;5095261;28;20027;-78
2022/11/06 04:40:02;;;;;;;108.00;69.32;;;;;;;;;;5097365;28;20031;-80
2022/11/06 04:42:38;;;;;;;90.07;64.85;;;;;;;;;;5094192;28;20474;-78
2022/11/06 04:45:06;;;;;;;92.25;72.82;;;;;;;;;;5088029;28;20038;-78
2022/11/06 04:47:33;;;;;;;134.43;91.97;;;;;;;;;;5089253;28;20028;-77
2022/11/06 04:50:01;;;;;;;136.00;101.10;;;;;;;;;;5093547;28;20052;-78
2022/11/06 04:52:27;;;;;;;108.60;79.72;;;;;;;;;;5098202;28;20111;-76
2022/11/06 04:54:52;;;;;;;102.40;76.18;;;;;;;;;;5095964;28;20059;-76
2022/11/06 04:57:18;;;;;;;89.82;73.80;;;;;;;;;;5102119;28;20055;-76
2022/11/06 04:59:43;;;;;;;90.25;69.55;;;;;;;;;;5100729;28;20042;-78
2022/11/06 05:02:09;;;;;;;84.63;65.72;;;;;;;;;;5101990;28;20460;-78
2022/11/06 05:04:34;;;;;;;93.90;70.72;;;;;;;;;;5100005;28;20043;-77
2022/11/06 05:07:00;;;;;;;97.55;70.30;;;;;;;;;;5101286;28;20027;-78
2022/11/06 05:09:27;;;;;;;92.90;71.07;;;;;;;;;;5091952;28;20073;-76
2022/11/06 05:11:52;;;;;;;89.32;74.47;;;;;;;;;;5098693;28;20501;-78
2022/11/06 05:14:18;;;;;;;96.57;77.18;;;;;;;;;;5097010;28;20027;-77
2022/11/06 05:16:43;;;;;;;89.32;70.78;;;;;;;;;;5096394;28;20046;-77
2022/11/06 05:19:09;;;;;;;94.03;67.50;;;;;;;;;;5101938;28;20044;-77
2022/11/06 05:24:18;;;;;;;138.55;102.05;;;;;;;;;;5098141;28;20088;-78
2022/11/06 05:26:43;;;;;;;101.45;76.47;;;;;;;;;;5098103;28;20447;-78
2022/11/06 05:29:10;;;;;;;102.07;80.30;;;;;;;;;;5103892;28;20830;-77
2022/11/06 05:31:35;;;;;;;106.45;84.75;;;;;;;;;;5102374;28;20027;-78
2022/11/06 05:34:00;;;;;;;146.55;113.32;;;;;;;;;;5103724;28;20435;-78
2022/11/06 05:36:26;;;;;;;138.63;107.85;;;;;;;;;;5102051;28;20379;-78
2022/11/06 05:38:51;;;;;;;124.28;101.28;;;;;;;;;;5100452;28;20081;-77
2022/11/06 05:41:16;;;;;;;108.40;89.50;;;;;;;;;;5089983;28;20092;-77
2022/11/06 05:43:42;;;;;;;91.45;75.40;;;;;;;;;;5102654;28;20051;-77
2022/11/06 05:46:07;;;;;;;92.88;73.00;;;;;;;;;;5103349;28;20028;-78
2022/11/06 05:48:32;;;;;;;87.20;71.25;;;;;;;;;;5096543;28;20020;-78
2022/11/06 05:51:02;;;;;;;93.15;77.05;;;;;;;;;;5088005;28;20400;-77
2022/11/06 05:53:28;;;;;;;91.40;71.75;;;;;;;;;;5089153;28;20027;-77
2022/11/06 05:55:54;;;;;;;88.38;69.85;;;;;;;;;;5087899;28;20031;-77
2022/11/06 05:58:19;;;;;;;88.93;71.70;;;;;;;;;;5085891;28;20030;-78
2022/11/06 06:00:44;;;;;;;91.07;73.45;;;;;;;;;;5091629;28;20031;-78
2022/11/06 06:03:10;;;;;;;95.00;73.53;;;;;;;;;;5103083;28;20021;-78
2022/11/06 06:05:35;;;;;;;91.63;75.47;;;;;;;;;;5103392;28;20508;-78
2022/11/06 06:08:00;;;;;;;98.93;82.45;;;;;;;;;;5104545;28;20031;-78
2022/11/06 06:10:26;;;;;;;260.20;202.48;;;;;;;;;;5103679;28;20035;-78
2022/11/06 06:12:51;;;;;;;166.52;128.95;;;;;;;;;;5103334;28;20530;-78
2022/11/06 06:15:17;;;;;;;130.68;99.68;;;;;;;;;;5095267;28;20031;-77
2022/11/06 06:17:42;;;;;;;90.93;74.32;;;;;;;;;;5107702;27;20047;-78
2022/11/06 06:20:08;;;;;;;91.15;71.93;;;;;;;;;;5110041;27;20430;-77
2022/11/06 06:22:33;;;;;;;106.95;80.30;;;;;;;;;;5124709;27;20066;-78
2022/11/06 06:24:58;;;;;;;113.88;85.32;;;;;;;;;;5123116;27;20034;-77
2022/11/06 06:27:26;;;;;;;112.95;88.18;;;;;;;;;;5122777;27;20031;-78
2022/11/06 06:29:52;;;;;;;116.40;93.80;;;;;;;;;;5124681;27;20031;-78
2022/11/06 06:32:17;;;;;;;124.20;101.97;;;;;;;;;;5122419;27;20091;-78
2022/11/06 06:34:42;;;;;;;135.48;114.90;;;;;;;;;;5121403;27;20039;-78
2022/11/06 06:37:08;;;;;;;116.70;97.40;;;;;;;;;;5123240;27;20027;-77
2022/11/06 06:39:33;;;;;;;112.45;94.75;;;;;;;;;;5122342;27;20031;-77
2022/11/06 06:41:58;;;;;;;106.00;90.70;;;;;;;;;;5114681;27;20027;-78
2022/11/06 06:44:24;;;;;;;135.32;113.95;;;;;;;;;;5118577;27;20152;-78
2022/11/06 06:46:49;;;;;;;135.27;110.18;;;;;;;;;;5105838;27;20066;-79
2022/11/06 06:49:14;;;;;;;127.53;108.35;;;;;;;;;;5108007;27;20027;-77
2022/11/06 06:51:40;;;;;;;117.90;98.38;;;;;;;;;;5107446;27;20023;-78
2022/11/06 06:54:05;;;;;;;112.60;88.22;;;;;;;;;;5106269;27;20023;-78
2022/11/06 06:56:30;;;;;;;121.57;101.97;;;;;;;;;;5106753;27;20446;-77
2022/11/06 06:58:56;;;;;;;122.25;104.20;;;;;;;;;;5104111;27;20076;-77
2022/11/06 07:01:21;;;;;;;144.25;128.30;;;;;;;;;;5105763;27;20059;-77
2022/11/06 07:03:47;;;;;;;115.45;93.25;;;;;;;;;;5106557;27;20023;-78
2022/11/06 07:06:12;;;;;;;134.13;114.32;;;;;;;;;;5111068;27;20789;-79
2022/11/06 07:08:37;;;;;;;132.95;114.50;;;;;;;;;;5111484;27;20098;-76
2022/11/06 07:11:04;;;;;;;130.50;110.07;;;;;;;;;;5121597;27;20629;-78
2022/11/06 07:13:30;;;;;;;115.22;97.45;;;;;;;;;;5110214;27;20027;-78
2022/11/06 07:15:55;;;;;;;128.13;105.45;;;;;;;;;;5108926;27;20339;-78
2022/11/06 07:18:21;;;;;;;96.78;78.68;;;;;;;;;;5108413;27;20054;-77
2022/11/06 07:20:46;;;;;;;114.25;91.18;;;;;;;;;;5108385;27;20034;-77
2022/11/06 07:23:12;;;;;;;129.27;97.03;;;;;;;;;;5107139;27;20759;-78
2022/11/06 07:25:37;;;;;;;102.38;83.32;;;;;;;;;;5104268;27;20275;-77
2022/11/06 07:28:03;;;;;;;118.93;85.93;;;;;;;;;;5113677;27;20034;-78
2022/11/06 07:30:29;;;;;;;135.63;95.35;;;;;;;;;;5115096;27;20051;-77
2022/11/06 07:32:54;;;;;;;192.45;118.28;;;;;;;;;;5116183;27;20108;-78
2022/11/06 07:35:19;;;;;;;144.68;96.88;;;;;;;;;;5119129;27;20031;-79
2022/11/06 07:37:45;;;;;;;139.35;98.53;;;;;;;;;;5110478;28;20026;-78
2022/11/06 07:40:10;;;;;;;388.70;221.20;;;;;;;;;;5121899;28;20334;-78
2022/11/06 07:42:35;;;;;;;107.85;74.95;;;;;;;;;;5121776;28;20452;-77
2022/11/06 07:45:01;;;;;;;72.72;52.80;;;;;;;;;;5116098;27;20072;-77
2022/11/06 07:47:28;;;;;;;79.57;60.45;;;;;;;;;;5117666;28;20031;-77
2022/11/06 07:49:54;;;;;;;79.65;61.17;;;;;;;;;;5102229;28;20095;-78
2022/11/06 07:52:20;;;;;;;84.45;68.03;;;;;;;;;;5122100;28;20041;-78
2022/11/06 07:54:45;;;;;;;90.00;69.30;;;;;;;;;;5122201;28;20022;-78
2022/11/06 07:57:11;;;;;;;115.20;89.85;;;;;;;;;;5116778;28;20023;-77
2022/11/06 07:59:36;;;;;;;111.32;74.28;;;;;;;;;;5116803;27;20435;-78
2022/11/06 08:02:01;;;;;;;110.13;74.22;;;;;;;;;;5122281;27;20031;-78
2022/11/06 08:04:26;;;;;;;82.65;66.13;;;;;;;;;;5119060;27;20034;-77
2022/11/06 08:06:52;;;;;;;109.72;88.97;;;;;;;;;;5107908;27;20038;-77
2022/11/06 08:09:17;;;;;;;127.70;99.15;;;;;;;;;;5113268;27;20097;-76
2022/11/06 08:11:42;;;;;;;105.63;89.47;;;;;;;;;;5125379;27;20114;-76
2022/11/06 08:14:09;;;;;;;111.43;96.57;;;;;;;;;;5112043;27;20506;-76
2022/11/06 08:16:35;;;;;;;92.03;76.95;;;;;;;;;;5123595;27;20113;-78
2022/11/06 08:19:00;;;;;;;94.88;77.03;;;;;;;;;;5115429;27;20134;-75
2022/11/06 08:21:25;;;;;;;98.95;81.70;;;;;;;;;;5124707;27;20114;-77
2022/11/06 08:23:51;;;;;;;106.88;91.22;;;;;;;;;;5118326;27;20445;-78
2022/11/06 08:26:17;;;;;;;128.25;101.97;;;;;;;;;;5105193;27;20042;-77
2022/11/06 08:28:42;;;;;;;142.30;103.30;;;;;;;;;;5106456;27;20427;-75
2022/11/06 08:31:08;;;;;;;133.82;104.25;;;;;;;;;;5108414;27;20023;-77
2022/11/06 08:33:34;;;;;;;82.10;70.90;;;;;;;;;;5104158;27;20027;-76
2022/11/06 08:36:01;;;;;;;59.00;51.20;;;;;;;;;;5106093;27;20031;-76
2022/11/06 08:38:26;;;;;;;62.30;50.20;;;;;;;;;;5102188;27;20056;-76
2022/11/06 08:40:51;;;;;;;57.30;50.97;;;;;;;;;;5108104;27;20128;-77
2022/11/06 08:43:17;;;;;;;64.43;55.95;;;;;;;;;;5111667;27;20023;-77
2022/11/06 08:45:42;;;;;;;124.72;102.72;;;;;;;;;;5113639;27;20030;-76
2022/11/06 08:48:08;;;;;;;75.43;63.70;;;;;;;;;;5125838;27;20035;-76
2022/11/06 08:50:34;;;;;;;142.18;112.53;;;;;;;;;;5121046;27;20019;-75
2022/11/06 08:53:02;;;;;;;61.97;52.33;;;;;;;;;;5125900;27;20027;-77
2022/11/06 08:55:28;;;;;;;60.90;52.33;;;;;;;;;;5122448;27;20029;-77
2022/11/06 08:57:54;;;;;;;67.57;54.08;;;;;;;;;;5124087;27;20023;-77
2022/11/06 09:00:19;;;;;;;92.32;71.60;;;;;;;;;;5124534;27;20039;-78
2022/11/06 09:02:45;;;;;;;75.47;65.47;;;;;;;;;;5124038;27;20027;-77
2022/11/06 09:05:10;;;;;;;84.85;70.05;;;;;;;;;;5124815;27;20027;-77
2022/11/06 09:07:35;;;;;;;62.50;52.13;;;;;;;;;;5124876;27;20026;-76
2022/11/06 09:10:01;;;;;;;53.00;47.28;;;;;;;;;;5122202;27;20796;-76
2022/11/06 09:12:26;;;;;;;116.85;98.13;;;;;;;;;;5123896;27;20091;-77
2022/11/06 09:14:53;;;;;;;63.90;50.90;;;;;;;;;;5124855;27;20031;-77
2022/11/06 09:17:22;;;;;;;56.80;47.35;;;;;;;;;;5124196;27;20087;-75
2022/11/06 09:19:47;;;;;;;54.03;45.55;;;;;;;;;;5124923;27;20055;-77
2022/11/06 09:22:13;;;;;;;54.05;46.85;;;;;;;;;;5124523;27;20074;-76
2022/11/06 09:24:38;;;;;;;54.72;43.35;;;;;;;;;;5125795;27;20354;-76
2022/11/06 09:27:03;;;;;;;54.03;44.75;;;;;;;;;;5123640;27;20109;-76
2022/11/06 09:29:29;;;;;;;50.65;41.03;;;;;;;;;;5122196;27;20047;-77
2022/11/06 09:31:54;;;;;;;46.53;39.40;;;;;;;;;;5124435;27;20031;-77
2022/11/06 09:34:19;;;;;;;49.03;41.25;;;;;;;;;;5123284;27;20080;-77
2022/11/06 09:36:45;;;;;;;47.20;39.92;;;;;;;;;;5123217;27;20632;-77
2022/11/06 09:39:10;;;;;;;48.33;40.80;;;;;;;;;;5125304;27;20450;-77
2022/11/06 09:41:38;;;;;;;66.13;55.47;;;;;;;;;;5123583;27;20030;-77
2022/11/06 09:44:06;;;;;;;80.80;67.70;;;;;;;;;;5124194;27;20051;-77
2022/11/06 09:46:34;;;;;;;123.43;96.28;;;;;;;;;;5125276;27;20059;-77
2022/11/06 09:49:11;;;;;;;58.67;50.13;;;;;;;;;;5125081;27;20529;-78
2022/11/06 09:51:42;;;;;;;59.00;51.15;;;;;;;;;;5123624;27;20064;-77
2022/11/06 09:54:17;;;;;;;70.28;55.75;;;;;;;;;;5125035;27;20024;-77
2022/11/06 09:56:44;;;;;;;71.60;57.45;;;;;;;;;;5124351;27;20457;-77
2022/11/06 09:59:10;;;;;;;111.22;90.88;;;;;;;;;;5121103;27;20327;-77
2022/11/06 10:01:44;;;;;;;87.03;69.60;;;;;;;;;;5122522;27;20110;-77
2022/11/06 10:04:18;;;;;;;69.35;58.75;;;;;;;;;;5121934;27;20026;-77
2022/11/06 10:06:43;;;;;;;75.25;56.30;;;;;;;;;;5123011;27;20734;-78
2022/11/06 10:09:09;;;;;;;67.43;51.55;;;;;;;;;;5124572;27;20050;-78
2022/11/06 10:11:44;;;;;;;58.05;45.53;;;;;;;;;;5123747;27;20106;-78
2022/11/06 10:14:12;;;;;;;56.30;48.28;;;;;;;;;;5119388;27;20203;-77
2022/11/06 10:16:41;;;;;;;51.05;43.15;;;;;;;;;;5111787;27;20038;-77
2022/11/06 10:19:06;;;;;;;81.43;70.30;;;;;;;;;;5123427;27;20975;-78
2022/11/06 10:21:45;;;;;;;62.55;50.33;;;;;;;;;;5122671;27;20020;-79
2022/11/06 10:24:18;;;;;;;58.38;50.40;;;;;;;;;;5118925;27;20023;-76
2022/11/06 10:26:54;;;;;;;54.53;46.67;;;;;;;;;;5115206;27;20765;-78
2022/11/06 10:29:33;;;;;;;56.45;48.60;;;;;;;;;;5113397;27;20488;-78
2022/11/06 10:32:03;;;;;;;45.22;39.15;;;;;;;;;;5108846;27;20015;-77
2022/11/06 10:34:33;;;;;;;43.92;36.38;;;;;;;;;;5109072;27;20035;-78
2022/11/06 10:37:11;;;;;;;58.97;46.25;;;;;;;;;;5109383;27;20023;-75
2022/11/06 10:39:36;;;;;;;142.52;107.07;;;;;;;;;;5109562;27;20034;-76
2022/11/06 10:42:19;;;;;;;84.13;59.42;;;;;;;;;;5108768;27;20358;-76
2022/11/06 10:44:57;;;;;;;47.28;40.45;;;;;;;;;;5109521;27;20075;-79
2022/11/06 10:47:26;;;;;;;52.65;41.80;;;;;;;;;;5108112;27;20079;-77
2022/11/06 10:49:53;;;;;;;73.05;60.75;;;;;;;;;;5108788;27;20023;-76
2022/11/06 10:52:37;;;;;;;91.93;71.72;;;;;;;;;;5108396;27;20038;-76
2022/11/06 10:55:22;;;;;;;82.28;69.30;;;;;;;;;;5108365;27;20118;-77
2022/11/06 10:57:59;;;;;;;61.80;52.58;;;;;;;;;;5113821;27;20027;-78
2022/11/06 11:00:25;;;;;;;63.63;48.92;;;;;;;;;;5120672;27;20102;-77
2022/11/06 11:02:52;;;;;;;62.80;51.08;;;;;;;;;;5122407;27;20460;-77
2022/11/06 11:05:19;;;;;;;66.88;50.90;;;;;;;;;;5120393;27;20458;-77
2022/11/06 11:07:46;;;;;;;75.30;61.88;;;;;;;;;;5108500;27;20136;-76
2022/11/06 11:10:38;;;;;;;101.30;66.80;;;;;;;;;;5108645;27;20027;-75
2022/11/06 11:13:04;;;;;;;73.47;50.85;;;;;;;;;;5106314;27;20447;-75
2022/11/06 11:15:36;;;;;;;61.33;50.53;;;;;;;;;;5121989;27;20491;-75
2022/11/06 11:18:10;;;;;;;62.70;51.80;;;;;;;;;;5104099;27;20252;-75
2022/11/06 11:20:40;;;;;;;62.35;46.15;;;;;;;;;;5121751;27;20107;-75
2022/11/06 11:23:06;;;;;;;89.85;61.33;;;;;;;;;;5119298;27;20046;-77
2022/11/06 11:25:32;;;;;;;80.95;59.65;;;;;;;;;;5123112;27;20441;-75
2022/11/06 11:27:57;;;;;;;66.45;55.10;;;;;;;;;;5122455;27;20027;-76
2022/11/06 11:30:28;;;;;;;95.57;59.72;;;;;;;;;;5123160;27;20019;-75
2022/11/06 11:32:54;;;;;;;146.68;93.60;;;;;;;;;;5111155;27;20276;-75
2022/11/06 11:35:21;;;;;;;89.95;63.20;;;;;;;;;;5110899;27;20053;-76
2022/11/06 11:37:47;;;;;;;70.57;60.78;;;;;;;;;;5115812;27;20019;-77
2022/11/06 11:40:34;;;;;;;67.72;54.00;;;;;;;;;;5120958;27;20031;-76
2022/11/06 11:43:23;;;;;;;75.68;61.35;;;;;;;;;;5121923;28;20024;-76
2022/11/06 11:46:01;;;;;;;73.10;58.60;;;;;;;;;;5110942;28;20057;-75
2022/11/06 11:48:26;;;;;;;63.92;51.85;;;;;;;;;;5119409;28;20059;-75
2022/11/06 11:50:52;;;;;;;63.75;53.78;;;;;;;;;;5104318;28;20063;-77
2022/11/06 11:53:18;;;;;;;66.47;51.67;;;;;;;;;;5108386;28;20201;-76
2022/11/06 11:55:45;;;;;;;137.48;101.45;;;;;;;;;;5106677;27;20027;-78
2022/11/06 11:58:16;;;;;;;90.80;69.47;;;;;;;;;;5109667;27;20430;-75
2022/11/06 12:00:48;;;;;;;66.20;49.70;;;;;;;;;;5120160;28;20430;-76
2022/11/06 12:03:13;;;;;;;86.25;66.38;;;;;;;;;;5122710;28;20401;-76
2022/11/06 12:05:39;;;;;;;58.53;46.80;;;;;;;;;;5122113;28;20059;-77
2022/11/06 12:08:05;;;;;;;53.10;45.28;;;;;;;;;;5120609;28;20046;-75
2022/11/06 12:10:41;;;;;;;53.70;46.25;;;;;;;;;;5117770;28;20019;-78
2022/11/06 12:13:15;;;;;;;59.03;44.85;;;;;;;;;;5131663;28;20023;-76
2022/11/06 12:15:49;;;;;;;58.88;47.45;;;;;;;;;;5120440;28;20089;-77
2022/11/06 12:18:24;;;;;;;56.58;48.72;;;;;;;;;;5105419;27;20052;-74
2022/11/06 12:21:06;;;;;;;63.60;45.22;;;;;;;;;;5099808;28;20058;-73
2022/11/06 12:23:46;;;;;;;61.65;46.97;;;;;;;;;;5112470;28;20028;-76
2022/11/06 12:26:28;;;;;;;50.25;44.33;;;;;;;;;;5112936;28;20114;-75
2022/11/06 12:28:56;;;;;;;59.92;45.38;;;;;;;;;;5110658;28;20098;-77
2022/11/06 12:31:30;;;;;;;62.88;49.38;;;;;;;;;;5112985;28;20016;-74
2022/11/06 12:33:57;;;;;;;83.68;65.53;;;;;;;;;;5112086;28;20032;-76
2022/11/06 12:36:25;;;;;;;83.75;59.90;;;;;;;;;;5109371;28;20443;-76
2022/11/06 12:39:00;;;;;;;119.43;101.32;;;;;;;;;;5112433;28;20435;-75
2022/11/06 12:41:31;;;;;;;91.10;69.10;;;;;;;;;;5113255;28;20024;-74
2022/11/06 12:43:57;;;;;;;62.03;52.70;;;;;;;;;;5113119;28;20441;-75
2022/11/06 12:46:28;;;;;;;60.22;49.75;;;;;;;;;;5115712;28;20047;-75
2022/11/06 12:49:09;;;;;;;51.15;44.08;;;;;;;;;;5116483;28;20027;-75
2022/11/06 12:51:37;;;;;;;90.93;63.53;;;;;;;;;;5116487;28;20106;-76
2022/11/06 12:54:21;;;;;;;72.03;56.20;;;;;;;;;;5116468;28;20023;-74
2022/11/06 12:57:02;;;;;;;76.45;56.38;;;;;;;;;;5116356;28;20047;-73
2022/11/06 12:59:44;;;;;;;61.22;49.17;;;;;;;;;;5116084;28;20015;-74
2022/11/06 13:02:28;;;;;;;72.75;48.47;;;;;;;;;;5116268;28;20024;-74
2022/11/06 13:05:12;;;;;;;61.55;46.38;;;;;;;;;;5115681;28;20027;-75
2022/11/06 13:07:56;;;;;;;76.20;48.53;;;;;;;;;;5116123;28;20011;-76
2022/11/06 13:10:40;;;;;;;56.70;46.38;;;;;;;;;;5113956;28;20438;-76
2022/11/06 13:13:20;;;;;;;60.45;45.97;;;;;;;;;;5110283;28;20079;-77
2022/11/06 13:15:58;;;;;;;52.00;43.72;;;;;;;;;;5096590;28;20350;-74
2022/11/06 13:18:42;;;;;;;66.63;57.70;;;;;;;;;;5115654;28;20130;-77
2022/11/06 13:21:17;;;;;;;60.97;46.33;;;;;;;;;;5116189;28;20031;-75
2022/11/06 13:23:47;;;;;;;56.80;49.95;;;;;;;;;;5115205;28;20181;-75
2022/11/06 13:26:16;;;;;;;68.85;59.47;;;;;;;;;;5116075;28;20031;-74
2022/11/06 13:28:41;;;;;;;;;;;;;;;;;;5116554;28;20084;-76
2022/11/06 13:31:09;;;;;;;68.00;53.77;;;;;;;;;;5116158;28;19908;-75
2022/11/06 13:33:41;;;;;;;59.88;50.83;;;;;;;;;;5115560;28;20699;-76
2022/11/06 13:36:06;;;;;;;58.13;49.22;;;;;;;;;;5115741;28;20400;-74
2022/11/06 13:38:46;;;;;;;58.25;49.20;;;;;;;;;;5115886;28;20027;-75
2022/11/06 13:41:20;;;;;;;56.30;49.83;;;;;;;;;;5115722;28;20035;-74
2022/11/06 13:43:55;;;;;;;69.15;56.65;;;;;;;;;;5115444;28;20353;-74
2022/11/06 13:46:26;;;;;;;82.75;65.60;;;;;;;;;;5115411;28;20016;-74
2022/11/06 13:48:58;;;;;;;82.07;69.38;;;;;;;;;;5115627;28;20088;-73
2022/11/06 13:51:27;;;;;;;70.80;61.03;;;;;;;;;;5115801;28;20547;-72
2022/11/06 13:53:58;;;;;;;70.82;62.28;;;;;;;;;;5115606;28;20016;-73
2022/11/06 13:56:49;;;;;;;66.28;58.75;;;;;;;;;;5114853;28;20480;-72
2022/11/06 13:59:21;;;;;;;67.22;55.50;;;;;;;;;;5112363;28;20059;-72
2022/11/06 14:01:59;;;;;;;60.17;51.40;;;;;;;;;;5113980;28;20023;-75
2022/11/06 14:04:43;;;;;;;67.82;57.05;;;;;;;;;;5110627;28;20408;-74
2022/11/06 14:07:09;;;;;;;60.08;49.20;;;;;;;;;;5111109;28;20056;-72
2022/11/06 14:09:35;;;;;;;58.17;49.03;;;;;;;;;;5110916;28;20446;-73
2022/11/06 14:12:02;;;;;;;65.40;53.13;;;;;;;;;;5094116;28;20437;-76
2022/11/06 14:14:30;;;;;;;59.53;52.20;;;;;;;;;;5088632;28;20038;-75
2022/11/06 14:17:13;;;;;;;60.92;53.00;;;;;;;;;;5094240;28;20028;-77
2022/11/06 14:19:39;;;;;;;60.15;47.97;;;;;;;;;;5086856;28;20475;-76
2022/11/06 14:22:07;;;;;;;110.93;95.40;;;;;;;;;;5099539;28;20039;-77
2022/11/06 14:24:33;;;;;;;100.35;81.68;;;;;;;;;;5092029;28;20027;-76
2022/11/06 14:26:59;;;;;;;80.85;65.80;;;;;;;;;;5088423;28;20458;-76
2022/11/06 14:29:25;;;;;;;54.33;47.88;;;;;;;;;;5088680;28;20146;-76
2022/11/06 14:32:11;;;;;;;71.13;59.60;;;;;;;;;;5092649;28;20114;-74
2022/11/06 14:34:38;;;;;;;75.82;66.45;;;;;;;;;;5091465;28;20111;-76